createdAt,value
2023-02-28T00:01:35.901Z,2.38
2023-02-28T00:04:04.281Z,3.10
2023-02-28T00:06:33.717Z,3.10
2023-02-28T00:09:02.168Z,2.60
2023-02-28T00:11:30.853Z,2.97
2023-02-28T00:13:59.762Z,2.67
2023-02-28T00:16:29.088Z,3.38
2023-02-28T00:18:57.771Z,2.60
2023-02-28T00:21:27.771Z,2.22
2023-02-28T00:23:56.471Z,3.70
2023-02-28T00:26:25.017Z,3.25
2023-02-28T00:28:53.999Z,2.90
2023-02-28T00:31:23.075Z,2.80
2023-02-28T00:33:53.286Z,3.15
2023-02-28T00:36:22.831Z,2.85
2023-02-28T00:38:51.493Z,3.15
2023-02-28T00:41:19.901Z,3.50
2023-02-28T00:43:49.080Z,3.55
2023-02-28T00:48:48.802Z,2.55
2023-02-28T00:51:16.675Z,3.30
2023-02-28T00:53:45.436Z,5.25
2023-02-28T00:56:14.823Z,2.67
2023-02-28T00:58:43.153Z,2.50
2023-02-28T01:01:11.709Z,2.13
2023-02-28T01:03:40.254Z,2.63
2023-02-28T01:06:08.457Z,2.85
2023-02-28T01:08:36.611Z,2.65
2023-02-28T01:11:13.551Z,2.55
2023-02-28T01:13:44.129Z,2.70
2023-02-28T01:16:15.031Z,2.50
2023-02-28T01:18:43.693Z,5.65
2023-02-28T01:21:18.100Z,3.38
2023-02-28T01:23:47.539Z,2.60
2023-02-28T01:26:23.286Z,2.53
2023-02-28T01:28:53.495Z,2.65
2023-02-28T01:31:23.004Z,2.90
2023-02-28T01:33:51.843Z,2.58
2023-02-28T01:36:24.744Z,4.75
2023-02-28T01:38:54.202Z,2.90
2023-02-28T01:41:30.764Z,3.08
2023-02-28T01:44:07.973Z,2.83
2023-02-28T01:46:37.692Z,3.35
2023-02-28T01:49:18.450Z,3.10
2023-02-28T01:51:55.788Z,2.03
2023-02-28T01:54:36.574Z,2.63
2023-02-28T01:57:18.048Z,3.95
2023-02-28T02:00:10.297Z,2.78
2023-02-28T02:02:47.718Z,3.20
2023-02-28T02:05:32.354Z,2.85
2023-02-28T02:08:13.363Z,3.38
2023-02-28T02:10:51.254Z,2.90
2023-02-28T02:13:56.629Z,3.47
2023-02-28T02:16:44.952Z,3.95
2023-02-28T02:19:55.895Z,4.03
2023-02-28T02:22:46.163Z,3.55
2023-02-28T02:25:46.409Z,3.10
2023-02-28T02:28:35.314Z,3.15
2023-02-28T02:31:36.578Z,4.43
2023-02-28T02:34:40.468Z,3.15
2023-02-28T02:37:17.915Z,3.70
2023-02-28T02:39:52.887Z,4.20
2023-02-28T02:42:31.133Z,3.35
2023-02-28T02:45:23.842Z,3.55
2023-02-28T02:47:52.894Z,3.13
2023-02-28T02:50:28.905Z,3.20
2023-02-28T02:53:04.538Z,4.68
2023-02-28T02:55:40.022Z,3.15
2023-02-28T02:58:20.567Z,3.92
2023-02-28T03:00:55.061Z,3.50
2023-02-28T03:03:35.715Z,3.60
2023-02-28T03:06:06.976Z,3.30
2023-02-28T03:08:38.985Z,3.67
2023-02-28T03:11:16.343Z,3.15
2023-02-28T03:13:51.432Z,5.97
2023-02-28T03:16:42.806Z,10.85
2023-02-28T03:19:34.115Z,5.47
2023-02-28T03:22:34.584Z,5.18
2023-02-28T03:25:26.583Z,4.90
2023-02-28T03:28:28.176Z,4.35
2023-02-28T03:31:10.313Z,4.13
2023-02-28T03:34:19.840Z,3.90
2023-02-28T03:37:16.400Z,3.85
2023-02-28T03:40:02.194Z,4.20
2023-02-28T03:42:36.608Z,4.68
2023-02-28T03:45:13.995Z,4.32
2023-02-28T03:47:50.209Z,4.50
2023-02-28T03:50:40.665Z,3.65
2023-02-28T03:53:20.721Z,5.05
2023-02-28T03:56:07.377Z,4.07
2023-02-28T03:59:07.936Z,5.55
2023-02-28T04:01:45.942Z,3.47
2023-02-28T04:04:15.473Z,4.78
2023-02-28T04:06:46.400Z,2.63
2023-02-28T04:09:16.280Z,5.25
2023-02-28T04:11:50.648Z,5.15
2023-02-28T04:14:19.932Z,4.13
2023-02-28T04:16:48.657Z,6.00
2023-02-28T04:19:18.125Z,5.10
2023-02-28T04:21:52.554Z,4.75
2023-02-28T04:24:25.757Z,6.13
2023-02-28T04:26:57.423Z,6.65
2023-02-28T04:29:33.174Z,5.07
2023-02-28T04:32:03.598Z,4.03
2023-02-28T04:34:33.940Z,3.70
2023-02-28T04:37:12.770Z,3.97
2023-02-28T04:39:42.881Z,4.75
2023-02-28T04:42:12.252Z,5.22
2023-02-28T04:44:42.057Z,4.65
2023-02-28T04:47:10.138Z,4.80
2023-02-28T04:49:39.255Z,4.70
2023-02-28T04:52:08.637Z,5.38
2023-02-28T04:54:36.776Z,5.15
2023-02-28T04:57:05.575Z,6.00
2023-02-28T04:59:34.163Z,5.13
2023-02-28T05:02:08.305Z,6.00
2023-02-28T05:04:37.902Z,6.05
2023-02-28T05:07:06.371Z,4.97
2023-02-28T05:09:34.677Z,5.68
2023-02-28T05:12:04.510Z,5.30
2023-02-28T05:14:33.577Z,6.78
2023-02-28T05:17:04.453Z,6.70
2023-02-28T05:19:33.013Z,10.48
2023-02-28T05:22:01.511Z,10.30
2023-02-28T05:24:29.997Z,10.02
2023-02-28T05:26:58.649Z,8.75
2023-02-28T05:29:27.892Z,9.93
2023-02-28T05:31:56.406Z,10.73
2023-02-28T05:34:24.694Z,7.82
2023-02-28T05:36:53.933Z,9.32
2023-02-28T05:39:24.100Z,8.77
2023-02-28T05:41:53.224Z,7.20
2023-02-28T05:44:21.359Z,18.77
2023-02-28T05:46:49.362Z,9.43
2023-02-28T05:49:18.987Z,9.77
2023-02-28T05:51:47.604Z,54.83
2023-02-28T05:54:16.585Z,51.47
2023-02-28T05:56:47.736Z,14.00
2023-02-28T05:59:17.122Z,10.65
2023-02-28T06:01:49.567Z,9.00
2023-02-28T06:04:31.465Z,8.23
2023-02-28T06:07:01.321Z,6.60
2023-02-28T06:09:30.257Z,7.53
2023-02-28T06:12:04.810Z,6.75
2023-02-28T06:14:34.966Z,6.35
2023-02-28T06:17:07.871Z,6.10
2023-02-28T06:19:40.106Z,6.20
2023-02-28T06:22:09.999Z,6.68
2023-02-28T06:24:38.182Z,5.70
2023-02-28T06:27:06.703Z,5.55
2023-02-28T06:29:40.906Z,5.30
2023-02-28T06:32:09.806Z,6.60
2023-02-28T06:34:38.498Z,6.10
2023-02-28T06:37:07.121Z,5.93
2023-02-28T06:39:37.479Z,7.03
2023-02-28T06:42:06.385Z,6.15
2023-02-28T06:44:41.481Z,7.95
2023-02-28T06:47:10.730Z,5.22
2023-02-28T06:52:13.729Z,5.30
2023-02-28T06:54:43.677Z,7.05
2023-02-28T06:57:12.208Z,7.95
2023-02-28T06:59:41.057Z,6.45
2023-02-28T07:02:12.761Z,6.78
2023-02-28T07:04:45.955Z,4.50
2023-02-28T07:07:16.079Z,6.03
2023-02-28T07:09:45.092Z,7.10
2023-02-28T07:12:16.432Z,5.85
2023-02-28T07:14:44.586Z,6.95
2023-02-28T07:17:13.474Z,7.63
2023-02-28T07:19:41.536Z,6.53
2023-02-28T07:22:09.792Z,8.13
2023-02-28T07:24:42.016Z,8.18
2023-02-28T07:27:10.178Z,11.30
2023-02-28T07:29:39.636Z,7.55
2023-02-28T07:32:07.944Z,9.75
2023-02-28T07:34:36.674Z,7.93
2023-02-28T07:37:06.231Z,8.38
2023-02-28T07:39:34.376Z,7.43
2023-02-28T07:42:12.860Z,5.17
2023-02-28T07:44:41.929Z,9.25
2023-02-28T07:47:13.033Z,6.65
2023-02-28T07:49:41.420Z,7.00
2023-02-28T07:52:12.263Z,7.43
2023-02-28T07:54:40.674Z,6.90
2023-02-28T07:57:09.585Z,6.00
2023-02-28T07:59:40.072Z,7.10
2023-02-28T08:02:13.634Z,7.05
2023-02-28T08:04:44.515Z,7.50
2023-02-28T08:07:15.194Z,8.63
2023-02-28T08:09:44.464Z,5.45
2023-02-28T08:12:14.778Z,9.73
2023-02-28T08:14:45.742Z,6.05
2023-02-28T08:17:15.873Z,6.90
2023-02-28T08:19:47.156Z,9.32
2023-02-28T08:22:15.646Z,9.35
2023-02-28T08:24:45.445Z,8.07
2023-02-28T08:27:14.547Z,8.23
2023-02-28T08:29:45.945Z,7.28
2023-02-28T08:34:59.663Z,9.57
2023-02-28T08:37:28.167Z,6.25
2023-02-28T08:39:57.008Z,6.85
2023-02-28T08:42:26.176Z,10.15
2023-02-28T08:44:56.544Z,9.07
2023-02-28T08:47:25.420Z,7.78
2023-02-28T08:49:55.535Z,7.00
2023-02-28T08:52:24.891Z,9.90
2023-02-28T08:54:55.479Z,8.82
2023-02-28T08:57:23.776Z,7.90
2023-02-28T09:00:16.326Z,7.28
2023-02-28T09:02:46.216Z,9.07
2023-02-28T09:05:35.860Z,8.00
2023-02-28T09:08:04.862Z,11.13
2023-02-28T09:10:33.097Z,8.25
2023-02-28T09:13:03.673Z,8.32
2023-02-28T09:15:32.964Z,9.55
2023-02-28T09:18:01.173Z,11.43
2023-02-28T09:20:30.044Z,8.43
2023-02-28T09:22:58.378Z,8.48
2023-02-28T09:25:26.985Z,7.03
2023-02-28T09:27:56.035Z,8.27
2023-02-28T09:30:24.714Z,10.32
2023-02-28T09:32:55.421Z,11.70
2023-02-28T09:35:26.140Z,13.73
2023-02-28T09:37:59.981Z,13.13
2023-02-28T09:40:34.124Z,8.50
2023-02-28T09:43:07.508Z,8.73
2023-02-28T09:45:43.768Z,8.35
2023-02-28T09:48:19.708Z,7.43
2023-02-28T09:50:52.662Z,8.40
2023-02-28T09:54:01.377Z,9.45
2023-02-28T09:56:42.844Z,8.02
2023-02-28T09:59:37.898Z,9.63
2023-02-28T10:02:50.612Z,9.23
2023-02-28T10:05:32.857Z,6.90
2023-02-28T10:08:40.389Z,7.22
2023-02-28T10:11:57.188Z,10.35
2023-02-28T10:14:49.600Z,8.80
2023-02-28T10:17:55.013Z,7.50
2023-02-28T10:20:36.949Z,8.00
2023-02-28T10:23:29.104Z,8.68
2023-02-28T10:26:13.095Z,8.57
2023-02-28T10:28:42.172Z,8.45
2023-02-28T10:31:26.394Z,9.23
2023-02-28T10:33:56.665Z,9.15
2023-02-28T10:36:31.466Z,11.57
2023-02-28T10:39:26.031Z,9.77
2023-02-28T10:42:07.387Z,7.40
2023-02-28T10:44:38.626Z,7.88
2023-02-28T10:47:20.044Z,8.70
2023-02-28T10:52:55.409Z,9.73
2023-02-28T10:55:34.711Z,8.57
2023-02-28T10:58:48.989Z,9.88
2023-02-28T11:01:23.279Z,8.48
2023-02-28T11:07:37.343Z,9.18
2023-02-28T11:12:57.653Z,10.23
2023-02-28T11:16:21.880Z,9.95
2023-02-28T11:19:03.037Z,11.52
2023-02-28T11:21:41.479Z,9.43
2023-02-28T11:24:48.189Z,10.13
2023-02-28T11:27:30.812Z,8.40
2023-02-28T11:30:00.985Z,19.17
2023-02-28T11:32:32.638Z,13.73
2023-02-28T11:35:23.505Z,11.35
2023-02-28T11:37:53.055Z,21.73
2023-02-28T11:41:03.769Z,10.65
2023-02-28T11:44:12.555Z,10.18
2023-02-28T11:46:58.648Z,9.27
2023-02-28T11:49:52.851Z,10.77
2023-02-28T11:52:53.030Z,8.25
2023-02-28T11:55:27.703Z,8.80
2023-02-28T11:58:28.282Z,9.27
2023-02-28T12:01:10.398Z,7.47
2023-02-28T12:04:22.738Z,10.10
2023-02-28T12:07:22.472Z,8.27
2023-02-28T12:10:30.394Z,10.27
2023-02-28T12:13:21.456Z,8.57
2023-02-28T12:16:29.226Z,8.55
2023-02-28T12:19:15.330Z,8.02
2023-02-28T12:22:23.046Z,7.97
2023-02-28T12:25:09.065Z,7.65
2023-02-28T12:27:47.287Z,8.20
2023-02-28T12:30:29.013Z,8.43
2023-02-28T12:33:15.574Z,8.68
2023-02-28T12:36:02.257Z,9.65
2023-02-28T12:39:00.332Z,8.45
2023-02-28T12:42:01.175Z,9.70
2023-02-28T12:44:40.975Z,10.05
2023-02-28T12:47:18.238Z,9.52
2023-02-28T12:50:17.843Z,9.40
2023-02-28T12:53:29.854Z,11.43
2023-02-28T12:56:36.871Z,14.45
2023-02-28T12:59:49.197Z,11.35
2023-02-28T13:02:26.357Z,11.07
2023-02-28T13:05:09.885Z,13.95
2023-02-28T13:08:39.128Z,9.45
2023-02-28T13:11:20.956Z,9.13
2023-02-28T13:14:21.258Z,9.20
2023-02-28T13:17:12.712Z,9.15
2023-02-28T13:20:16.325Z,7.72
2023-02-28T13:22:52.608Z,7.95
2023-02-28T13:25:42.875Z,8.65
2023-02-28T13:28:15.990Z,10.60
2023-02-28T13:30:54.303Z,8.02
2023-02-28T13:33:31.453Z,8.40
2023-02-28T13:36:15.512Z,9.45
2023-02-28T13:38:53.135Z,8.23
2023-02-28T13:41:43.227Z,8.30
2023-02-28T13:44:16.551Z,8.48
2023-02-28T13:46:52.042Z,8.50
2023-02-28T13:49:27.594Z,10.68
2023-02-28T13:52:08.786Z,10.23
2023-02-28T13:55:20.889Z,10.63
2023-02-28T13:58:16.673Z,10.57
2023-02-28T14:01:13.189Z,11.88
2023-02-28T14:03:42.043Z,9.40
2023-02-28T14:06:36.188Z,9.50
2023-02-28T14:09:41.341Z,8.95
2023-02-28T14:12:53.521Z,10.32
2023-02-28T14:15:40.372Z,8.93
2023-02-28T14:18:41.477Z,9.95
2023-02-28T14:21:30.570Z,9.45
2023-02-28T14:24:33.222Z,16.30
2023-02-28T14:27:42.554Z,9.07
2023-02-28T14:31:06.066Z,10.07
2023-02-28T14:33:47.058Z,8.20
2023-02-28T14:36:40.079Z,10.38
2023-02-28T14:39:23.937Z,8.40
2023-02-28T14:41:56.781Z,10.20
2023-02-28T14:44:28.615Z,9.55
2023-02-28T14:49:33.808Z,9.30
2023-02-28T14:52:14.757Z,8.25
2023-02-28T14:54:44.831Z,11.98
2023-02-28T14:57:35.222Z,11.20
2023-02-28T15:00:35.192Z,10.85
2023-02-28T15:03:36.436Z,7.10
2023-02-28T15:06:19.190Z,13.73
2023-02-28T15:09:12.771Z,12.68
2023-02-28T15:11:50.197Z,9.32
2023-02-28T15:14:29.379Z,12.00
2023-02-28T15:17:05.300Z,12.38
2023-02-28T15:19:40.974Z,10.88
2023-02-28T15:22:20.154Z,13.63
2023-02-28T15:24:54.115Z,10.63
2023-02-28T15:27:33.511Z,9.15
2023-02-28T15:30:09.344Z,13.30
2023-02-28T15:32:43.732Z,12.00
2023-02-28T15:35:33.893Z,10.15
2023-02-28T15:38:20.759Z,7.57
2023-02-28T15:41:00.658Z,11.85
2023-02-28T15:43:35.140Z,11.70
2023-02-28T15:46:16.362Z,10.57
2023-02-28T15:48:56.456Z,14.00
2023-02-28T15:51:35.752Z,11.18
2023-02-28T15:54:16.432Z,11.82
2023-02-28T15:56:54.553Z,10.75
2023-02-28T15:59:30.728Z,11.13
2023-02-28T16:02:23.315Z,11.18
2023-02-28T16:05:14.961Z,12.73
2023-02-28T16:07:46.950Z,11.00
2023-02-28T16:10:16.504Z,12.00
2023-02-28T16:12:45.445Z,10.82
2023-02-28T16:15:31.332Z,11.57
2023-02-28T16:17:59.915Z,10.00
2023-02-28T16:20:34.924Z,11.68
2023-02-28T16:23:03.996Z,12.55
2023-02-28T16:25:45.134Z,14.55
2023-02-28T16:28:32.683Z,10.35
2023-02-28T16:31:06.247Z,18.55
2023-02-28T16:33:36.118Z,11.93
2023-02-28T16:36:07.477Z,13.65
2023-02-28T16:38:35.727Z,12.18
2023-02-28T16:41:06.479Z,11.65
2023-02-28T16:43:36.208Z,11.23
2023-02-28T16:46:06.668Z,12.32
2023-02-28T16:48:34.830Z,9.90
2023-02-28T16:51:05.824Z,9.65
2023-02-28T16:53:35.890Z,12.48
2023-02-28T16:56:05.462Z,20.88
2023-02-28T16:58:36.974Z,11.07
2023-02-28T17:03:35.119Z,10.40
2023-02-28T17:06:30.871Z,11.13
2023-02-28T17:09:03.076Z,11.52
2023-02-28T17:11:34.914Z,11.13
2023-02-28T17:14:04.543Z,11.55
2023-02-28T17:16:38.490Z,12.30
2023-02-28T17:19:12.087Z,10.30
2023-02-28T17:21:43.909Z,11.07
2023-02-28T17:24:28.914Z,16.60
2023-02-28T17:26:59.756Z,16.23
2023-02-28T17:29:28.972Z,15.70
2023-02-28T17:32:00.799Z,16.15
2023-02-28T17:34:31.448Z,12.95
2023-02-28T17:37:03.955Z,17.50
2023-02-28T17:42:01.134Z,14.95
2023-02-28T17:44:30.718Z,14.10
2023-02-28T17:47:01.103Z,12.32
2023-02-28T17:49:29.491Z,14.02
2023-02-28T17:51:59.335Z,10.98
2023-02-28T17:54:28.584Z,12.90
2023-02-28T17:56:57.294Z,13.30
2023-02-28T17:59:25.449Z,10.27
2023-02-28T18:01:56.651Z,11.23
2023-02-28T18:04:28.162Z,10.98
2023-02-28T18:09:28.552Z,10.80
2023-02-28T18:11:57.072Z,10.88
2023-02-28T18:14:26.488Z,11.38
2023-02-28T18:16:57.402Z,8.27
2023-02-28T18:19:25.135Z,11.45
2023-02-28T18:21:57.272Z,11.07
2023-02-28T18:24:25.233Z,12.27
2023-02-28T18:26:53.113Z,13.18
2023-02-28T18:29:25.317Z,13.38
2023-02-28T18:31:59.451Z,12.93
2023-02-28T18:34:33.308Z,11.38
2023-02-28T18:37:04.761Z,12.90
2023-02-28T18:39:32.723Z,12.13
2023-02-28T18:42:00.706Z,13.57
2023-02-28T18:44:28.418Z,11.35
2023-02-28T18:46:56.225Z,11.07
2023-02-28T18:49:23.967Z,13.00
2023-02-28T18:51:52.845Z,11.77
2023-02-28T18:54:20.849Z,11.23
2023-02-28T18:56:50.808Z,12.77
2023-02-28T18:59:21.062Z,13.20
2023-02-28T19:01:51.315Z,12.23
2023-02-28T19:04:19.172Z,18.33
2023-02-28T19:06:46.912Z,18.58
2023-02-28T19:09:14.678Z,17.60
2023-02-28T19:11:42.664Z,17.35
2023-02-28T19:14:10.699Z,16.73
2023-02-28T19:16:39.894Z,15.00
2023-02-28T19:19:07.883Z,16.42
2023-02-28T19:21:36.715Z,14.73
2023-02-28T19:24:05.343Z,17.73
2023-02-28T19:26:33.824Z,15.48
2023-02-28T19:29:06.058Z,18.23
2023-02-28T19:31:33.908Z,25.08
2023-02-28T19:34:04.684Z,31.80
2023-02-28T19:36:33.383Z,25.08
2023-02-28T19:39:01.337Z,23.08
2023-02-28T19:41:29.288Z,18.83
2023-02-28T19:43:57.279Z,16.27
2023-02-28T19:46:25.604Z,16.30
2023-02-28T19:48:56.167Z,15.75
2023-02-28T19:51:24.490Z,14.95
2023-02-28T19:53:52.414Z,17.83
2023-02-28T19:56:20.262Z,15.25
2023-02-28T19:58:48.206Z,18.92
2023-02-28T20:01:19.622Z,18.00
2023-02-28T20:03:51.252Z,18.92
2023-02-28T20:06:19.144Z,22.00
2023-02-28T20:08:48.609Z,32.30
2023-02-28T20:11:17.687Z,36.28
2023-02-28T20:13:48.339Z,40.25
2023-02-28T20:16:16.647Z,45.03
2023-02-28T20:18:47.450Z,36.30
2023-02-28T20:21:16.493Z,36.43
2023-02-28T20:23:48.593Z,45.83
2023-02-28T20:26:20.237Z,39.83
2023-02-28T20:28:48.656Z,34.55
2023-02-28T20:31:25.500Z,25.45
2023-02-28T20:33:53.475Z,22.02
2023-02-28T20:36:23.593Z,20.73
2023-02-28T20:38:53.083Z,20.10
2023-02-28T20:41:21.780Z,19.65
2023-02-28T20:44:00.839Z,18.73
2023-02-28T20:46:31.294Z,17.75
2023-02-28T20:48:59.331Z,16.50
2023-02-28T20:51:27.119Z,17.23
2023-02-28T20:53:54.982Z,15.75
2023-02-28T20:56:25.982Z,14.15
2023-02-28T20:59:13.943Z,16.90
2023-02-28T21:01:44.749Z,16.55
2023-02-28T21:04:12.663Z,17.10
2023-02-28T21:06:43.718Z,15.88
2023-02-28T21:09:14.405Z,15.95
2023-02-28T21:11:42.623Z,16.13
2023-02-28T21:14:16.424Z,18.75
2023-02-28T21:16:48.111Z,17.17
2023-02-28T21:19:16.931Z,16.75
2023-02-28T21:21:46.665Z,19.77
2023-02-28T21:24:19.774Z,15.10
2023-02-28T21:26:48.172Z,19.25
2023-02-28T21:29:16.113Z,21.40
2023-02-28T21:31:44.114Z,20.73
2023-02-28T21:34:13.512Z,20.13
2023-02-28T21:36:47.446Z,18.67
2023-02-28T21:39:19.779Z,21.05
2023-02-28T21:41:48.035Z,20.90
2023-02-28T21:44:19.542Z,17.52
2023-02-28T21:46:52.565Z,19.27
2023-02-28T21:49:20.722Z,20.05
2023-02-28T21:51:48.834Z,21.05
2023-02-28T21:54:16.707Z,21.77
2023-02-28T21:56:44.634Z,23.15
2023-02-28T21:59:13.080Z,20.30
2023-02-28T22:01:46.466Z,20.67
2023-02-28T22:04:22.017Z,14.68
2023-02-28T22:06:53.619Z,17.15
2023-02-28T22:09:21.800Z,15.95
2023-02-28T22:11:50.398Z,20.05
2023-02-28T22:14:18.808Z,20.92
2023-02-28T22:16:51.718Z,20.08
2023-02-28T22:19:22.099Z,17.73
2023-02-28T22:21:50.436Z,16.92
2023-02-28T22:24:20.993Z,16.52
2023-02-28T22:26:55.627Z,15.00
2023-02-28T22:31:51.430Z,14.98
2023-02-28T22:34:20.627Z,14.38
2023-02-28T22:36:54.946Z,13.43
2023-02-28T22:39:22.713Z,11.18
2023-02-28T22:41:51.229Z,12.55
2023-02-28T22:44:19.966Z,12.93
2023-02-28T22:46:53.805Z,13.95
2023-02-28T22:49:22.560Z,17.27
2023-02-28T22:51:57.605Z,13.55
2023-02-28T22:54:25.612Z,13.73
2023-02-28T22:56:53.424Z,13.95
2023-02-28T22:59:22.263Z,13.57
2023-02-28T23:01:54.317Z,13.32
2023-02-28T23:04:32.685Z,13.18
2023-02-28T23:07:01.143Z,14.40
2023-02-28T23:09:28.934Z,19.40
2023-02-28T23:11:56.636Z,20.92
2023-02-28T23:14:24.360Z,16.48
2023-02-28T23:16:54.944Z,15.73
2023-02-28T23:19:29.874Z,11.60
2023-02-28T23:21:59.974Z,12.95
2023-02-28T23:24:31.281Z,11.30
2023-02-28T23:29:29.701Z,13.15
2023-02-28T23:31:58.295Z,12.23
2023-02-28T23:34:30.205Z,15.85
2023-02-28T23:37:02.114Z,12.35
2023-02-28T23:39:31.293Z,13.68
2023-02-28T23:41:59.854Z,12.27
2023-02-28T23:44:28.107Z,10.80
2023-02-28T23:46:55.999Z,13.13
2023-02-28T23:49:23.884Z,12.18
2023-02-28T23:51:54.207Z,12.07
2023-02-28T23:54:22.338Z,13.15
2023-02-28T23:56:50.365Z,14.80
2023-02-28T23:59:18.250Z,13.27
